Las Isletillas, Argentina
Current Conditions -  °F | °C
As of 1:00 PM on Tuesday 27 Jan 2015 (Local Time) from SAOC Reporting Station
Scattered Clouds Scattered Clouds  
Wind Chill: 30°   Ceiling: Unl
Heat Index: 30°   Visibility: 6mi
Dew Point: 17°   Wind: 15mph
Humidity: 45%   Direction: 230°SW
Pressure: 29.77"   Gusts: NA
Location:  32.38°S, 63.78°W
Report Text: SAOC 271600Z 23013KT 9999 FEW030TCU SCT070 30/17 Q1008
Loading
Personal Weather Stations






























Interactive Weather Map New forecast layout! Learn more

10-Day Weather Forecast

Advertisements
Track Severe Weather on mobile